createdAt,value
2022-11-23T00:00:37.868Z,97018.69
2022-11-23T00:02:45.271Z,97016.94
2022-11-23T00:04:50.120Z,97020.38
2022-11-23T00:06:55.014Z,97016.94
2022-11-23T00:09:01.038Z,97016.19
2022-11-23T00:11:06.078Z,97018.78
2022-11-23T00:13:10.998Z,97013.66
2022-11-23T00:15:18.737Z,97019.06
2022-11-23T00:17:23.537Z,97016.66
2022-11-23T00:19:28.330Z,97014.22
2022-11-23T00:21:35.580Z,97020.38
2022-11-23T00:23:40.751Z,97024.00
2022-11-23T00:25:47.281Z,97023.28
2022-11-23T00:27:52.064Z,97021.75
2022-11-23T00:29:56.856Z,97022.75
2022-11-23T00:32:04.235Z,97028.75
2022-11-23T00:34:09.084Z,97022.81
2022-11-23T00:36:15.962Z,97026.44
2022-11-23T00:38:20.769Z,97024.69
2022-11-23T00:40:27.117Z,97023.94
2022-11-23T00:42:37.680Z,97022.25
2022-11-23T00:44:42.976Z,97025.59
2022-11-23T00:46:47.825Z,97019.66
2022-11-23T00:48:57.580Z,97018.81
2022-11-23T00:51:04.255Z,97019.88
2022-11-23T00:53:09.241Z,97014.75
2022-11-23T00:55:14.181Z,97013.94
2022-11-23T00:57:18.941Z,97012.25
2022-11-23T00:59:24.133Z,97019.28
2022-11-23T01:01:31.048Z,97016.72
2022-11-23T01:03:36.087Z,97024.47
2022-11-23T01:05:43.803Z,97023.56
2022-11-23T01:07:48.639Z,97024.47
2022-11-23T01:09:53.432Z,97019.28
2022-11-23T01:11:58.922Z,97019.38
2022-11-23T01:14:04.215Z,97022.00
2022-11-23T01:16:12.890Z,97019.66
2022-11-23T01:18:17.644Z,97029.28
2022-11-23T01:20:22.480Z,97031.91
2022-11-23T01:22:29.869Z,97031.13
2022-11-23T01:24:34.915Z,97033.03
2022-11-23T01:26:39.695Z,97041.81
2022-11-23T01:28:45.281Z,97039.34
2022-11-23T01:30:50.178Z,97037.72
2022-11-23T01:32:55.000Z,97038.75
2022-11-23T01:34:59.788Z,97044.78
2022-11-23T01:37:06.208Z,97048.31
2022-11-23T01:39:14.625Z,97049.28
2022-11-23T01:41:21.642Z,97047.66
2022-11-23T01:43:26.474Z,97050.31
2022-11-23T01:45:40.943Z,97051.16
2022-11-23T01:47:46.880Z,97054.75
2022-11-23T01:49:55.035Z,97044.44
2022-11-23T01:52:05.341Z,97054.09
2022-11-23T01:54:17.740Z,97050.69
2022-11-23T01:56:27.810Z,97057.69
2022-11-23T01:58:37.334Z,97061.03
2022-11-23T02:00:42.746Z,97052.53
2022-11-23T02:02:50.517Z,97051.75
2022-11-23T02:04:57.936Z,97060.41
2022-11-23T02:07:04.557Z,97059.59
2022-11-23T02:09:10.095Z,97058.69
2022-11-23T02:11:19.834Z,97063.72
2022-11-23T02:13:27.863Z,97062.84
2022-11-23T02:15:32.725Z,97061.84
2022-11-23T02:17:37.808Z,97070.38
2022-11-23T02:19:57.265Z,97074.47
2022-11-23T02:22:05.257Z,97072.66
2022-11-23T02:24:15.505Z,97066.53
2022-11-23T02:26:26.176Z,97065.56
2022-11-23T02:28:35.551Z,97069.72
2022-11-23T02:30:45.258Z,97077.31
2022-11-23T02:32:50.376Z,97070.25
2022-11-23T02:34:55.901Z,97073.56
2022-11-23T02:37:00.921Z,97064.84
2022-11-23T02:39:11.687Z,97062.34
2022-11-23T02:41:17.378Z,97061.56
2022-11-23T02:43:26.317Z,97066.81
2022-11-23T02:45:39.592Z,97068.53
2022-11-23T02:47:44.538Z,97066.13
2022-11-23T02:49:50.985Z,97072.28
2022-11-23T02:51:56.510Z,97064.13
2022-11-23T02:54:04.097Z,97069.41
2022-11-23T02:56:09.217Z,97065.88
2022-11-23T02:58:14.353Z,97067.50
2022-11-23T03:00:22.750Z,97063.94
2022-11-23T03:02:27.568Z,97074.16
2022-11-23T03:04:32.569Z,97071.47
2022-11-23T03:06:37.679Z,97075.75
2022-11-23T03:08:45.066Z,97084.25
2022-11-23T03:10:50.875Z,97070.47
2022-11-23T03:12:58.311Z,97076.47
2022-11-23T03:15:04.989Z,97080.81
2022-11-23T03:17:13.865Z,97074.84
2022-11-23T03:19:21.389Z,97078.34
2022-11-23T03:21:32.558Z,97074.16
2022-11-23T03:23:44.595Z,97082.72
2022-11-23T03:25:58.198Z,97087.94
2022-11-23T03:28:05.653Z,97086.31
2022-11-23T03:30:12.848Z,97085.56
2022-11-23T03:32:20.311Z,97087.38
2022-11-23T03:34:28.660Z,97085.75
2022-11-23T03:36:34.288Z,97087.44
2022-11-23T03:38:39.165Z,97085.69
2022-11-23T03:40:55.060Z,97082.28
2022-11-23T03:43:07.275Z,97079.63
2022-11-23T03:45:13.075Z,97077.88
2022-11-23T03:47:21.217Z,97076.13
2022-11-23T03:49:25.955Z,97075.16
2022-11-23T03:51:31.352Z,97086.31
2022-11-23T03:53:36.229Z,97086.28
2022-11-23T03:55:43.940Z,97078.66
2022-11-23T03:57:51.021Z,97083.75
2022-11-23T03:59:55.868Z,97080.31
2022-11-23T04:02:00.846Z,97080.28
2022-11-23T04:04:13.000Z,97074.16
2022-11-23T04:06:43.813Z,97074.91
2022-11-23T04:09:00.508Z,97071.31
2022-11-23T04:11:20.912Z,97071.31
2022-11-23T04:13:27.707Z,97067.75
2022-11-23T04:15:33.542Z,97060.84
2022-11-23T04:17:38.803Z,97065.91
2022-11-23T04:19:46.851Z,97065.00
2022-11-23T04:21:53.053Z,97065.81
2022-11-23T04:23:59.022Z,97066.81
2022-11-23T04:26:05.169Z,97057.31
2022-11-23T04:28:11.437Z,97054.75
2022-11-23T04:30:17.983Z,97059.09
2022-11-23T04:32:23.276Z,97059.16
2022-11-23T04:34:28.374Z,97050.56
2022-11-23T04:36:35.807Z,97049.84
2022-11-23T04:38:40.643Z,97049.81
2022-11-23T04:40:46.393Z,97062.63
2022-11-23T04:42:51.224Z,97063.47
2022-11-23T04:44:57.453Z,97054.00
2022-11-23T04:47:03.271Z,97056.50
2022-11-23T04:49:09.626Z,97056.50
2022-11-23T04:51:16.399Z,97059.81
2022-11-23T04:53:23.907Z,97058.81
2022-11-23T04:55:29.089Z,97050.84
2022-11-23T04:57:36.086Z,97054.19
2022-11-23T04:59:40.869Z,97061.03
2022-11-23T05:01:46.007Z,97049.69
2022-11-23T05:04:20.093Z,97055.59
2022-11-23T05:06:26.604Z,97045.41
2022-11-23T05:08:35.222Z,97053.94
2022-11-23T05:11:03.114Z,97053.22
2022-11-23T05:13:08.207Z,97052.41
2022-11-23T05:15:16.109Z,97048.06
2022-11-23T05:17:22.399Z,97048.91
2022-11-23T05:19:30.131Z,97047.22
2022-11-23T05:21:35.288Z,97037.78
2022-11-23T05:23:43.256Z,97040.38
2022-11-23T05:25:48.121Z,97045.81
2022-11-23T05:27:55.841Z,97043.34
2022-11-23T05:30:00.426Z,97047.88
2022-11-23T05:32:05.335Z,97041.84
2022-11-23T05:34:10.772Z,97035.84
2022-11-23T05:36:22.863Z,97042.66
2022-11-23T05:38:28.430Z,97048.53
2022-11-23T05:40:39.678Z,97041.56
2022-11-23T05:42:45.974Z,97044.31
2022-11-23T05:44:56.411Z,97049.44
2022-11-23T05:47:09.959Z,97053.69
2022-11-23T05:49:19.271Z,97045.88
2022-11-23T05:51:24.025Z,97047.50
2022-11-23T05:53:28.926Z,97045.66
2022-11-23T05:55:43.240Z,97047.38
2022-11-23T05:57:48.047Z,97053.41
2022-11-23T05:59:54.311Z,97056.09
2022-11-23T06:02:03.858Z,97051.88
2022-11-23T06:04:10.975Z,97047.81
2022-11-23T06:06:20.550Z,97047.00
2022-11-23T06:08:25.470Z,97042.75
2022-11-23T06:10:30.365Z,97049.03
2022-11-23T06:12:38.038Z,97049.22
2022-11-23T06:14:46.276Z,97045.91
2022-11-23T06:16:54.145Z,97049.59
2022-11-23T06:19:19.125Z,97053.97
2022-11-23T06:21:23.991Z,97052.97
2022-11-23T06:23:29.481Z,97056.91
2022-11-23T06:25:38.496Z,97054.09
2022-11-23T06:27:57.797Z,97056.50
2022-11-23T06:30:08.933Z,97062.59
2022-11-23T06:32:19.516Z,97061.66
2022-11-23T06:34:25.125Z,97066.56
2022-11-23T06:36:30.013Z,97073.19
2022-11-23T06:38:36.349Z,97069.44
2022-11-23T06:41:00.725Z,97060.63
2022-11-23T06:43:09.906Z,97068.53
2022-11-23T06:45:21.029Z,97076.28
2022-11-23T06:47:30.542Z,97067.78
2022-11-23T06:49:36.136Z,97078.94
2022-11-23T06:51:54.046Z,97076.13
2022-11-23T06:53:59.004Z,97084.81
2022-11-23T06:56:04.930Z,97080.41
2022-11-23T06:58:13.069Z,97080.34
2022-11-23T07:00:18.950Z,97081.13
2022-11-23T07:02:23.859Z,97087.19
2022-11-23T07:04:28.670Z,97084.75
2022-11-23T07:06:33.524Z,97080.41
2022-11-23T07:08:44.178Z,97084.03
2022-11-23T07:11:12.480Z,97089.31
2022-11-23T07:13:20.093Z,97090.38
2022-11-23T07:15:25.000Z,97087.78
2022-11-23T07:17:31.020Z,97093.88
2022-11-23T07:19:35.963Z,97101.66
2022-11-23T07:21:40.767Z,97098.25
2022-11-23T07:23:48.646Z,97103.41
2022-11-23T07:25:53.485Z,97100.75
2022-11-23T07:27:59.473Z,97104.22
2022-11-23T07:30:08.887Z,97105.88
2022-11-23T07:32:15.106Z,97105.69
2022-11-23T07:34:19.963Z,97102.09
2022-11-23T07:36:24.938Z,97109.69
2022-11-23T07:38:29.760Z,97118.25
2022-11-23T07:40:35.379Z,97111.16
2022-11-23T07:42:44.799Z,97113.78
2022-11-23T07:44:49.894Z,97111.16
2022-11-23T07:46:58.450Z,97110.19
2022-11-23T07:49:03.297Z,97113.59
2022-11-23T07:51:08.176Z,97118.78
2022-11-23T07:53:13.803Z,97117.03
2022-11-23T07:55:18.828Z,97122.91
2022-11-23T07:57:23.634Z,97125.47
2022-11-23T07:59:28.534Z,97127.19
2022-11-23T08:01:34.314Z,97122.91
2022-11-23T08:03:41.813Z,97130.59
2022-11-23T08:05:46.660Z,97127.88
2022-11-23T08:07:51.419Z,97131.03
2022-11-23T08:09:56.311Z,97123.88
2022-11-23T08:12:01.188Z,97127.84
2022-11-23T08:14:06.021Z,97120.66
2022-11-23T08:16:10.789Z,97127.25
2022-11-23T08:18:15.617Z,97121.16
2022-11-23T08:20:23.100Z,97117.59
2022-11-23T08:22:27.845Z,97125.63
2022-11-23T08:24:32.996Z,97127.09
2022-11-23T08:26:38.039Z,97122.56
2022-11-23T08:28:42.820Z,97118.00
2022-11-23T08:30:48.522Z,97110.88
2022-11-23T08:32:53.295Z,97112.09
2022-11-23T08:34:58.095Z,97112.97
2022-11-23T08:37:05.416Z,97112.09
2022-11-23T08:39:11.218Z,97115.56
2022-11-23T08:41:18.219Z,97106.13
2022-11-23T08:43:22.981Z,97118.00
2022-11-23T08:45:27.950Z,97108.28
2022-11-23T08:47:34.445Z,97109.72
2022-11-23T08:49:39.253Z,97103.75
2022-11-23T08:51:49.752Z,97103.63
2022-11-23T08:53:57.639Z,97103.63
2022-11-23T08:56:03.869Z,97105.91
2022-11-23T08:58:13.142Z,97112.00
2022-11-23T09:00:20.716Z,97113.53
2022-11-23T09:02:25.507Z,97108.44
2022-11-23T09:04:31.071Z,97108.16
2022-11-23T09:06:36.191Z,97108.56
2022-11-23T09:08:42.729Z,97102.41
2022-11-23T09:10:50.079Z,97099.38
2022-11-23T09:12:55.251Z,97099.16
2022-11-23T09:15:00.025Z,97104.09
2022-11-23T09:17:05.276Z,97099.03
2022-11-23T09:19:09.806Z,97105.66
2022-11-23T09:21:14.633Z,97103.75
2022-11-23T09:23:19.383Z,97098.19
2022-11-23T09:25:27.263Z,97102.06
2022-11-23T09:27:34.591Z,97098.97
2022-11-23T09:29:39.389Z,97102.03
2022-11-23T09:31:44.507Z,97098.28
2022-11-23T09:33:49.279Z,97089.44
2022-11-23T09:36:00.064Z,97094.91
2022-11-23T09:38:04.925Z,97094.75
2022-11-23T09:40:12.476Z,97095.44
2022-11-23T09:42:54.805Z,97092.72
2022-11-23T09:45:11.544Z,97087.97
2022-11-23T09:47:41.910Z,97088.25
2022-11-23T09:49:55.018Z,97088.09
2022-11-23T09:52:00.006Z,97088.09
2022-11-23T09:54:13.309Z,97094.84
2022-11-23T09:56:22.534Z,97082.78
2022-11-23T09:58:35.449Z,97089.41
2022-11-23T10:00:45.409Z,97083.22
2022-11-23T10:02:50.630Z,97077.09
2022-11-23T10:04:56.346Z,97072.34
2022-11-23T10:07:13.280Z,97083.31
2022-11-23T10:09:31.234Z,97075.19
2022-11-23T10:12:06.793Z,97069.59
2022-11-23T10:14:26.351Z,97073.03
2022-11-23T10:16:41.558Z,97064.34
2022-11-23T10:18:56.227Z,97076.13
2022-11-23T10:21:09.457Z,97070.53
2022-11-23T10:23:20.347Z,97068.53
2022-11-23T10:25:27.267Z,97059.66
2022-11-23T10:27:32.436Z,97060.50
2022-11-23T10:29:40.516Z,97055.72
2022-11-23T10:31:54.154Z,97056.72
2022-11-23T10:34:07.392Z,97053.78
2022-11-23T10:36:13.883Z,97050.84
2022-11-23T10:38:20.045Z,97045.09
2022-11-23T10:40:28.664Z,97036.72
2022-11-23T10:42:39.153Z,97042.50
2022-11-23T10:44:48.277Z,97027.31
2022-11-23T10:46:53.023Z,97032.06
2022-11-23T10:48:58.784Z,97028.94
2022-11-23T10:51:18.614Z,97029.94
2022-11-23T10:53:28.552Z,97034.78
2022-11-23T10:55:35.180Z,97028.97
2022-11-23T10:57:45.833Z,97029.31
2022-11-23T11:00:01.291Z,97024.13
2022-11-23T11:02:18.467Z,97028.59
2022-11-23T11:04:26.081Z,97031.19
2022-11-23T11:06:34.279Z,97026.09
2022-11-23T11:08:51.466Z,97027.09
2022-11-23T11:11:02.205Z,97024.69
2022-11-23T11:13:26.446Z,97019.59
2022-11-23T11:15:36.230Z,97018.06
2022-11-23T11:17:44.080Z,97015.75
2022-11-23T11:19:48.716Z,97023.56
2022-11-23T11:21:53.608Z,97014.63
2022-11-23T11:24:03.168Z,97011.59
2022-11-23T11:26:19.798Z,97015.25
2022-11-23T11:28:29.379Z,97001.63
2022-11-23T11:30:53.640Z,97003.94
2022-11-23T11:33:08.441Z,97004.13
2022-11-23T11:35:21.082Z,96996.78
2022-11-23T11:37:35.827Z,96995.31
2022-11-23T11:39:47.246Z,96989.84
2022-11-23T11:41:55.329Z,96990.72
2022-11-23T11:44:07.961Z,96986.88
2022-11-23T11:46:29.005Z,96982.00
2022-11-23T11:48:39.602Z,96988.16
2022-11-23T11:50:52.682Z,96986.56
2022-11-23T11:53:03.407Z,96985.94
2022-11-23T11:55:16.806Z,96995.50
2022-11-23T11:57:25.276Z,96983.41
2022-11-23T11:59:34.158Z,96984.28
2022-11-23T12:01:51.415Z,96983.50
2022-11-23T12:04:01.912Z,96979.16
2022-11-23T12:06:12.295Z,96983.22
2022-11-23T12:08:20.870Z,96972.75
2022-11-23T12:10:30.774Z,96985.66
2022-11-23T12:12:38.560Z,96982.75
2022-11-23T12:14:43.390Z,96974.31
2022-11-23T12:17:30.726Z,96975.34
2022-11-23T12:19:30.524Z,96969.31
2022-11-23T12:22:03.910Z,96972.56
2022-11-23T12:24:18.640Z,96965.88
2022-11-23T12:26:29.424Z,96968.94
2022-11-23T12:28:52.957Z,96967.91
2022-11-23T12:31:08.497Z,96967.81
2022-11-23T12:33:43.387Z,96970.31
2022-11-23T12:36:19.047Z,96964.09
2022-11-23T12:38:33.816Z,96965.72
2022-11-23T12:40:56.013Z,96959.81
2022-11-23T12:43:04.814Z,96962.41
2022-11-23T12:45:25.353Z,96956.31
2022-11-23T12:47:41.740Z,96955.47
2022-11-23T12:49:54.176Z,96958.16
2022-11-23T12:52:12.840Z,96948.97
2022-11-23T12:54:37.665Z,96942.94
2022-11-23T12:57:07.735Z,96947.38
2022-11-23T12:59:14.292Z,96943.00
2022-11-23T13:01:30.472Z,96945.53
2022-11-23T13:04:11.081Z,96937.16
2022-11-23T13:07:05.579Z,96936.59
2022-11-23T13:09:41.500Z,96937.72
2022-11-23T13:12:04.002Z,96943.75
2022-11-23T13:14:19.103Z,96940.59
2022-11-23T13:16:34.486Z,96936.34
2022-11-23T13:18:53.887Z,96944.06
2022-11-23T13:21:12.373Z,96935.41
2022-11-23T13:23:21.797Z,96933.84
2022-11-23T13:25:28.991Z,96934.75
2022-11-23T13:27:45.654Z,96939.97
2022-11-23T13:30:01.183Z,96933.09
2022-11-23T13:32:35.874Z,96933.19
2022-11-23T13:34:51.139Z,96927.34
2022-11-23T13:37:18.353Z,96928.47
2022-11-23T13:40:03.768Z,96927.53
2022-11-23T13:42:15.996Z,96920.94
2022-11-23T13:44:25.080Z,96917.56
2022-11-23T13:46:30.828Z,96916.75
2022-11-23T13:49:01.057Z,96914.97
2022-11-23T13:51:07.149Z,96906.53
2022-11-23T13:53:25.458Z,96908.94
2022-11-23T13:55:37.177Z,96904.25
2022-11-23T13:57:49.831Z,96901.81
2022-11-23T13:59:54.629Z,96897.66
2022-11-23T14:02:29.253Z,96897.53
2022-11-23T14:04:35.858Z,96898.66
2022-11-23T14:06:51.438Z,96902.91
2022-11-23T14:09:03.123Z,96896.88
2022-11-23T14:11:17.592Z,96906.28
2022-11-23T14:13:28.333Z,96903.66
2022-11-23T14:15:36.781Z,96910.72
2022-11-23T14:18:14.335Z,96908.94
2022-11-23T14:20:40.223Z,96910.81
2022-11-23T14:22:56.882Z,96905.88
2022-11-23T14:25:19.353Z,96913.03
2022-11-23T14:27:47.647Z,96922.03
2022-11-23T14:30:08.241Z,96921.09
2022-11-23T14:32:38.921Z,96917.59
2022-11-23T14:34:56.374Z,96920.19
2022-11-23T14:37:11.051Z,96928.81
2022-11-23T14:39:54.840Z,96929.53
2022-11-23T14:42:04.462Z,96931.59
2022-11-23T14:44:14.366Z,96929.88
2022-11-23T14:46:25.506Z,96927.59
2022-11-23T14:48:32.099Z,96934.72
2022-11-23T14:50:37.340Z,96928.78
2022-11-23T14:52:42.124Z,96928.94
2022-11-23T14:54:51.353Z,96932.81
2022-11-23T14:57:00.547Z,96933.09
2022-11-23T14:59:07.419Z,96942.72
2022-11-23T15:01:24.503Z,96935.03
2022-11-23T15:06:02.936Z,96938.91
2022-11-23T15:08:13.308Z,96937.13
2022-11-23T15:10:31.479Z,96933.72
2022-11-23T15:12:44.921Z,96935.66
2022-11-23T15:14:50.633Z,96928.88
2022-11-23T15:16:58.421Z,96930.63
2022-11-23T15:19:03.251Z,96932.72
2022-11-23T15:21:25.373Z,96941.63
2022-11-23T15:23:37.461Z,96952.34
2022-11-23T15:25:53.977Z,96951.75
2022-11-23T15:27:59.143Z,96959.88
2022-11-23T15:30:04.004Z,96949.03
2022-11-23T15:32:31.457Z,96957.16
2022-11-23T15:34:38.074Z,96954.63
2022-11-23T15:36:44.663Z,96951.25
2022-11-23T15:38:49.746Z,96954.13
2022-11-23T15:41:05.171Z,96961.31
2022-11-23T15:43:15.549Z,96965.25
2022-11-23T15:46:03.427Z,96960.44
2022-11-23T15:48:16.844Z,96953.75
2022-11-23T15:50:21.862Z,96961.78
2022-11-23T15:52:26.689Z,96965.44
2022-11-23T15:54:39.738Z,96976.06
2022-11-23T15:56:49.173Z,96979.34
2022-11-23T15:58:56.009Z,96976.75
2022-11-23T16:01:08.602Z,96974.97
2022-11-23T16:03:38.270Z,96989.09
2022-11-23T16:05:43.099Z,96985.84
2022-11-23T16:07:57.630Z,96987.22
2022-11-23T16:10:20.150Z,96991.56
2022-11-23T16:12:28.387Z,96995.25
2022-11-23T16:14:35.170Z,96988.47
2022-11-23T16:16:45.210Z,96982.63
2022-11-23T16:18:57.899Z,96973.97
2022-11-23T16:21:05.053Z,96985.59
2022-11-23T16:23:19.350Z,96985.00
2022-11-23T16:25:29.180Z,96981.88
2022-11-23T16:27:34.091Z,96982.03
2022-11-23T16:29:40.051Z,96979.91
2022-11-23T16:31:54.673Z,96982.50
2022-11-23T16:34:02.022Z,96980.75
2022-11-23T16:36:07.323Z,96991.28
2022-11-23T16:38:12.728Z,96989.56
2022-11-23T16:40:17.633Z,96986.31
2022-11-23T16:42:22.373Z,96989.16
2022-11-23T16:44:27.177Z,96976.41
2022-11-23T16:46:32.104Z,96993.03
2022-11-23T16:48:43.040Z,96989.50
2022-11-23T16:50:50.439Z,96990.66
2022-11-23T16:52:55.748Z,96990.59
2022-11-23T16:55:00.511Z,96992.56
2022-11-23T16:57:05.528Z,97002.13
2022-11-23T16:59:19.650Z,97003.97
2022-11-23T17:01:28.339Z,96999.91
2022-11-23T17:03:34.291Z,97006.84
2022-11-23T17:05:40.474Z,97012.78
2022-11-23T17:07:51.406Z,97016.50
2022-11-23T17:09:59.421Z,97017.34
2022-11-23T17:12:05.582Z,97021.69
2022-11-23T17:14:19.182Z,97019.31
2022-11-23T17:16:26.971Z,97019.47
2022-11-23T17:18:32.145Z,97029.97
2022-11-23T17:20:37.444Z,97021.38
2022-11-23T17:22:43.422Z,97030.03
2022-11-23T17:24:52.786Z,97029.38
2022-11-23T17:26:57.907Z,97032.84
2022-11-23T17:29:06.824Z,97038.31
2022-11-23T17:31:13.286Z,97047.13
2022-11-23T17:33:18.408Z,97051.53
2022-11-23T17:35:23.644Z,97055.78
2022-11-23T17:37:29.592Z,97058.38
2022-11-23T17:39:35.400Z,97064.59
2022-11-23T17:41:43.403Z,97061.97
2022-11-23T17:43:48.613Z,97060.34
2022-11-23T17:45:53.934Z,97067.34
2022-11-23T17:48:03.299Z,97070.84
2022-11-23T17:50:14.129Z,97073.56
2022-11-23T17:52:19.601Z,97079.72
2022-11-23T17:54:25.131Z,97077.19
2022-11-23T17:56:30.261Z,97081.66
2022-11-23T17:58:37.807Z,97087.88
2022-11-23T18:00:45.107Z,97083.84
2022-11-23T18:02:50.181Z,97082.97
2022-11-23T18:04:54.995Z,97090.94
2022-11-23T18:06:59.714Z,97093.53
2022-11-23T18:09:04.594Z,97092.72
2022-11-23T18:11:09.643Z,97093.69
2022-11-23T18:13:14.369Z,97102.41
2022-11-23T18:15:21.800Z,97097.38
2022-11-23T18:17:29.328Z,97094.91
2022-11-23T18:19:34.647Z,97094.16
2022-11-23T18:21:45.008Z,97098.53
2022-11-23T18:23:50.126Z,97109.91
2022-11-23T18:26:02.087Z,97106.78
2022-11-23T18:28:07.406Z,97114.66
2022-11-23T18:30:13.179Z,97108.72
2022-11-23T18:32:24.648Z,97109.84
2022-11-23T18:34:29.463Z,97115.25
2022-11-23T18:36:35.002Z,97118.84
2022-11-23T18:38:40.664Z,97121.41
2022-11-23T18:40:46.738Z,97124.00
2022-11-23T18:42:51.768Z,97124.88
2022-11-23T18:44:56.842Z,97125.88
2022-11-23T18:47:01.595Z,97130.16
2022-11-23T18:49:09.044Z,97125.06
2022-11-23T18:51:13.971Z,97130.31
2022-11-23T18:53:18.949Z,97126.84
2022-11-23T18:55:23.785Z,97129.44
2022-11-23T18:57:28.624Z,97128.72
2022-11-23T19:01:58.297Z,97128.13
2022-11-23T19:04:03.303Z,97130.00
2022-11-23T19:06:16.160Z,97142.78
2022-11-23T19:08:20.995Z,97146.38
2022-11-23T19:10:26.185Z,97150.00
2022-11-23T19:12:30.961Z,97153.47
2022-11-23T19:14:35.756Z,97160.44
2022-11-23T19:16:40.688Z,97162.13
2022-11-23T19:18:46.175Z,97167.13
2022-11-23T19:20:51.370Z,97164.72
2022-11-23T19:22:58.824Z,97165.63
2022-11-23T19:25:03.717Z,97169.88
2022-11-23T19:27:08.571Z,97174.03
2022-11-23T19:29:16.630Z,97171.44
2022-11-23T19:31:25.542Z,97170.41
2022-11-23T19:33:32.617Z,97183.16
2022-11-23T19:35:37.426Z,97177.13
2022-11-23T19:37:44.712Z,97182.22
2022-11-23T19:39:52.294Z,97183.75
2022-11-23T19:42:00.300Z,97188.00
2022-11-23T19:44:05.118Z,97183.88
2022-11-23T19:46:12.411Z,97190.66
2022-11-23T19:48:17.450Z,97180.34
2022-11-23T19:50:22.254Z,97191.38
2022-11-23T19:52:48.042Z,97199.13
2022-11-23T19:54:54.506Z,97197.50
2022-11-23T19:56:59.357Z,97195.84
2022-11-23T19:59:04.424Z,97202.06
2022-11-23T20:01:10.028Z,97215.16
2022-11-23T20:03:15.517Z,97212.81
2022-11-23T20:05:21.515Z,97217.97
2022-11-23T20:07:26.583Z,97227.22
2022-11-23T20:09:31.720Z,97233.94
2022-11-23T20:11:45.858Z,97241.53
2022-11-23T20:13:53.249Z,97249.22
2022-11-23T20:16:03.997Z,97254.16
2022-11-23T20:18:08.885Z,97249.47
2022-11-23T20:20:14.261Z,97258.72
2022-11-23T20:22:18.998Z,97257.63
2022-11-23T20:24:23.838Z,97262.66
2022-11-23T20:26:29.343Z,97271.09
2022-11-23T20:28:37.012Z,97272.63
2022-11-23T20:30:41.935Z,97265.53
2022-11-23T20:32:51.758Z,97277.41
2022-11-23T20:34:56.800Z,97267.06
2022-11-23T20:37:01.686Z,97272.25
2022-11-23T20:39:08.472Z,97272.25
2022-11-23T20:41:17.774Z,97275.53
2022-11-23T20:43:22.525Z,97284.16
2022-11-23T20:45:30.834Z,97287.75
2022-11-23T20:47:35.632Z,97290.22
2022-11-23T20:49:40.476Z,97294.28
2022-11-23T20:51:45.393Z,97293.19
2022-11-23T20:53:51.086Z,97288.72
2022-11-23T20:56:04.115Z,97285.97
2022-11-23T20:58:09.187Z,97298.94
2022-11-23T21:00:16.968Z,97303.38
2022-11-23T21:02:24.389Z,97298.19
2022-11-23T21:04:29.321Z,97297.53
2022-11-23T21:06:38.643Z,97300.94
2022-11-23T21:08:50.521Z,97304.25
2022-11-23T21:11:07.760Z,97301.47
2022-11-23T21:13:29.023Z,97308.28
2022-11-23T21:15:33.874Z,97312.78
2022-11-23T21:17:41.405Z,97314.41
2022-11-23T21:19:46.290Z,97311.00
2022-11-23T21:21:51.658Z,97321.22
2022-11-23T21:23:56.247Z,97320.41
2022-11-23T21:26:06.085Z,97316.78
2022-11-23T21:28:10.932Z,97320.28
2022-11-23T21:30:18.977Z,97323.78
2022-11-23T21:32:23.831Z,97326.28
2022-11-23T21:34:32.908Z,97329.84
2022-11-23T21:36:40.192Z,97331.41
2022-11-23T21:38:45.512Z,97329.53
2022-11-23T21:40:50.306Z,97330.50
2022-11-23T21:42:55.102Z,97334.78
2022-11-23T21:45:00.047Z,97330.47
2022-11-23T21:47:04.866Z,97334.00
2022-11-23T21:49:10.586Z,97328.75
2022-11-23T21:51:18.713Z,97326.94
2022-11-23T21:53:23.574Z,97332.13
2022-11-23T21:55:28.387Z,97331.22
2022-11-23T21:57:33.202Z,97330.31
2022-11-23T21:59:38.617Z,97337.25
2022-11-23T22:01:44.267Z,97334.72
2022-11-23T22:03:51.072Z,97348.47
2022-11-23T22:05:59.497Z,97351.78
2022-11-23T22:08:28.617Z,97349.19
2022-11-23T22:10:32.943Z,97356.00
2022-11-23T22:12:37.757Z,97357.59
2022-11-23T22:14:44.902Z,97359.19
2022-11-23T22:16:53.820Z,97358.91
2022-11-23T22:18:59.542Z,97362.22
2022-11-23T22:21:06.392Z,97355.09
2022-11-23T22:23:15.210Z,97363.56
2022-11-23T22:25:20.127Z,97369.53
2022-11-23T22:27:25.000Z,97368.66
2022-11-23T22:29:29.754Z,97372.03
2022-11-23T22:31:35.558Z,97371.25
2022-11-23T22:33:40.670Z,97376.50
2022-11-23T22:35:47.723Z,97379.81
2022-11-23T22:37:52.453Z,97378.91
2022-11-23T22:39:59.817Z,97371.84
2022-11-23T22:42:04.587Z,97377.91
2022-11-23T22:44:11.438Z,97382.22
2022-11-23T22:46:17.795Z,97377.75
2022-11-23T22:48:22.907Z,97377.69
2022-11-23T22:50:27.692Z,97377.59
2022-11-23T22:52:32.499Z,97370.75
2022-11-23T22:54:37.288Z,97390.53
2022-11-23T22:56:44.627Z,97390.41
2022-11-23T22:58:50.786Z,97394.81
2022-11-23T23:00:56.147Z,97386.06
2022-11-23T23:03:01.011Z,97398.97
2022-11-23T23:05:05.976Z,97393.00
2022-11-23T23:07:10.843Z,97399.94
2022-11-23T23:09:15.650Z,97403.50
2022-11-23T23:11:21.271Z,97404.41
2022-11-23T23:13:28.698Z,97414.69
2022-11-23T23:15:33.448Z,97411.22
2022-11-23T23:17:38.298Z,97415.38
2022-11-23T23:19:43.038Z,97419.69
2022-11-23T23:21:47.798Z,97421.31
2022-11-23T23:23:54.431Z,97427.31
2022-11-23T23:25:59.313Z,97430.69
2022-11-23T23:28:04.055Z,97428.00
2022-11-23T23:30:12.849Z,97425.28
2022-11-23T23:32:17.642Z,97439.22
2022-11-23T23:34:22.436Z,97440.00
2022-11-23T23:36:27.687Z,97441.66
2022-11-23T23:38:32.563Z,97440.78
2022-11-23T23:40:37.681Z,97447.63
2022-11-23T23:42:43.510Z,97446.84
2022-11-23T23:44:48.245Z,97453.84
2022-11-23T23:46:55.571Z,97462.38
2022-11-23T23:49:01.357Z,97463.94
2022-11-23T23:51:08.522Z,97465.03
2022-11-23T23:53:16.427Z,97466.53
2022-11-23T23:55:21.285Z,97463.94
2022-11-23T23:57:26.070Z,97469.97
2022-11-23T23:59:31.238Z,97483.81
